createdAt,value
2024-02-10T00:02:52.778Z,25.50
2024-02-10T00:07:57.075Z,24.52
2024-02-10T00:12:59.817Z,17.95
2024-02-10T00:18:01.767Z,15.38
2024-02-10T00:23:05.707Z,14.00
2024-02-10T00:28:07.535Z,11.50
2024-02-10T00:33:10.271Z,14.35
2024-02-10T00:38:16.163Z,10.65
2024-02-10T00:43:20.330Z,19.98
2024-02-10T00:48:22.219Z,16.45
2024-02-10T00:53:24.042Z,23.90
2024-02-10T00:58:26.325Z,12.70
2024-02-10T01:03:29.535Z,45.85
2024-02-10T01:08:33.594Z,19.00
2024-02-10T01:13:35.501Z,15.02
2024-02-10T01:18:38.050Z,15.35
2024-02-10T01:23:44.081Z,43.33
2024-02-10T01:28:46.259Z,36.05
2024-02-10T01:33:50.771Z,13.27
2024-02-10T01:38:54.988Z,20.85
2024-02-10T01:43:57.153Z,14.30
2024-02-10T01:49:00.582Z,11.35
2024-02-10T01:54:04.424Z,11.35
2024-02-10T01:59:09.052Z,21.67
2024-02-10T02:04:13.283Z,21.20
2024-02-10T02:09:16.502Z,30.00
2024-02-10T02:14:18.586Z,51.47
2024-02-10T02:19:20.745Z,23.02
2024-02-10T02:24:27.261Z,41.30
2024-02-10T02:29:29.276Z,15.18
2024-02-10T02:34:35.190Z,17.98
2024-02-10T02:39:37.807Z,19.48
2024-02-10T02:44:40.036Z,22.10
2024-02-10T02:49:42.187Z,79.40
2024-02-10T02:54:44.293Z,28.58
2024-02-10T02:59:48.215Z,41.15
2024-02-10T03:04:50.359Z,30.20
2024-02-10T03:09:52.287Z,21.55
2024-02-10T03:14:56.171Z,28.63
2024-02-10T03:20:01.793Z,22.08
2024-02-10T03:25:04.453Z,16.23
2024-02-10T03:30:10.262Z,13.07
2024-02-10T03:35:13.178Z,12.13
2024-02-10T03:40:19.611Z,16.90
2024-02-10T03:45:21.878Z,15.50
2024-02-10T03:50:23.736Z,14.93
2024-02-10T03:55:26.255Z,11.70
2024-02-10T04:00:29.842Z,14.15
2024-02-10T04:05:35.639Z,20.70
2024-02-10T04:10:38.421Z,13.55
2024-02-10T04:15:41.185Z,13.38
2024-02-10T04:20:45.557Z,17.58
2024-02-10T04:25:47.321Z,17.33
2024-02-10T04:30:49.582Z,15.90
2024-02-10T04:35:52.436Z,14.50
2024-02-10T04:40:54.402Z,14.55
2024-02-10T04:45:56.539Z,14.70
2024-02-10T04:50:58.636Z,12.95
2024-02-10T04:56:02.041Z,16.10
2024-02-10T05:01:04.179Z,13.63
2024-02-10T05:06:06.190Z,15.27
2024-02-10T05:11:08.046Z,13.68
2024-02-10T05:16:11.318Z,12.93
2024-02-10T05:21:18.668Z,13.18
2024-02-10T05:26:20.673Z,15.35
2024-02-10T05:31:22.480Z,13.15
2024-02-10T05:36:24.568Z,17.48
2024-02-10T05:41:26.586Z,16.42
2024-02-10T05:46:29.830Z,17.67
2024-02-10T05:51:40.060Z,16.92
2024-02-10T05:56:44.407Z,17.33
2024-02-10T06:01:48.422Z,15.82
2024-02-10T06:06:50.468Z,23.13
2024-02-10T06:11:53.797Z,13.48
2024-02-10T06:16:57.050Z,21.83
2024-02-10T06:21:59.037Z,14.15
2024-02-10T06:27:01.713Z,16.67
2024-02-10T06:32:07.571Z,18.55
2024-02-10T06:37:09.929Z,14.95
2024-02-10T06:42:12.939Z,20.58
2024-02-10T06:47:16.219Z,20.63
2024-02-10T06:52:20.784Z,14.65
2024-02-10T06:57:22.680Z,13.95
2024-02-10T07:02:26.056Z,17.80
2024-02-10T07:07:28.214Z,19.98
2024-02-10T07:12:31.424Z,14.40
2024-02-10T07:17:36.736Z,29.30
2024-02-10T07:22:38.718Z,18.92
2024-02-10T07:27:40.638Z,26.20
2024-02-10T07:32:47.003Z,18.58
2024-02-10T07:37:52.894Z,19.05
2024-02-10T07:42:55.336Z,26.42
2024-02-10T07:47:59.119Z,19.25
2024-02-10T07:53:01.624Z,20.85
2024-02-10T07:58:06.289Z,20.77
2024-02-10T08:03:13.446Z,18.40
2024-02-10T08:08:15.459Z,23.27
2024-02-10T08:13:17.297Z,21.70
2024-02-10T08:18:19.939Z,30.05
2024-02-10T08:23:22.064Z,25.52
2024-02-10T08:28:24.133Z,22.92
2024-02-10T08:33:30.257Z,27.00
2024-02-10T08:38:33.203Z,25.80
2024-02-10T08:43:38.697Z,24.08
2024-02-10T08:48:42.601Z,17.15
2024-02-10T08:53:45.474Z,23.02
2024-02-10T08:58:51.978Z,16.27
2024-02-10T09:03:58.089Z,21.52
2024-02-10T09:09:00.075Z,21.25
2024-02-10T09:14:02.011Z,23.00
2024-02-10T09:19:04.269Z,20.92
2024-02-10T09:24:06.613Z,15.15
2024-02-10T09:29:08.949Z,18.75
2024-02-10T09:34:12.923Z,16.92
2024-02-10T09:39:14.933Z,17.20
2024-02-10T09:44:18.767Z,13.48
2024-02-10T09:49:23.395Z,16.88
2024-02-10T09:54:25.642Z,14.68
2024-02-10T09:59:27.941Z,14.90
2024-02-10T10:04:30.129Z,15.75
2024-02-10T10:09:33.597Z,15.25
2024-02-10T10:14:37.792Z,15.60
2024-02-10T10:19:42.403Z,17.05
2024-02-10T10:24:44.312Z,14.32
2024-02-10T10:29:47.057Z,14.63
2024-02-10T10:34:50.068Z,28.55
2024-02-10T10:39:53.020Z,17.48
2024-02-10T10:44:57.115Z,14.18
2024-02-10T10:49:59.159Z,16.33
2024-02-10T10:55:02.273Z,23.85
2024-02-10T11:00:13.302Z,13.63
2024-02-10T11:05:18.070Z,17.08
2024-02-10T11:10:42.963Z,14.25
2024-02-10T11:15:44.871Z,14.52
2024-02-10T11:20:46.715Z,18.50
2024-02-10T11:25:49.431Z,31.92
2024-02-10T11:30:51.354Z,34.15
2024-02-10T11:35:56.727Z,21.80
2024-02-10T11:40:59.010Z,17.25
2024-02-10T11:46:00.940Z,20.45
2024-02-10T11:51:05.712Z,15.55
2024-02-10T11:56:08.942Z,14.48
2024-02-10T12:01:12.498Z,16.23
2024-02-10T12:06:16.453Z,19.75
2024-02-10T12:11:18.635Z,17.48
2024-02-10T12:16:21.562Z,16.15
2024-02-10T12:21:27.624Z,15.25
2024-02-10T12:26:29.800Z,23.38
2024-02-10T12:31:33.339Z,16.65
2024-02-10T12:36:35.472Z,17.10
2024-02-10T12:41:37.373Z,26.90
2024-02-10T12:46:40.184Z,14.93
2024-02-10T12:51:43.380Z,18.10
2024-02-10T12:56:45.109Z,20.73
2024-02-10T13:01:47.034Z,21.60
2024-02-10T13:06:50.438Z,19.17
2024-02-10T13:11:52.866Z,18.52
2024-02-10T13:16:58.440Z,17.00
2024-02-10T13:22:01.777Z,23.75
2024-02-10T13:27:03.850Z,20.20
2024-02-10T13:32:06.601Z,18.92
2024-02-10T13:37:08.680Z,14.52
2024-02-10T13:42:29.409Z,16.20
2024-02-10T13:47:49.948Z,19.00
2024-02-10T13:53:10.560Z,18.02
2024-02-10T13:58:12.979Z,22.60
2024-02-10T14:03:15.781Z,18.13
2024-02-10T14:08:36.922Z,13.05
2024-02-10T14:13:44.660Z,12.30
2024-02-10T14:18:48.338Z,15.57
2024-02-10T14:23:50.169Z,19.20
2024-02-10T14:28:54.932Z,19.67
2024-02-10T14:33:59.065Z,20.60
2024-02-10T14:39:07.919Z,17.60
2024-02-10T14:44:11.946Z,22.73
2024-02-10T14:49:16.394Z,19.40
2024-02-10T14:54:18.706Z,16.88
2024-02-10T14:59:21.505Z,25.10
2024-02-10T15:04:24.321Z,15.50
2024-02-10T15:09:29.039Z,20.85
2024-02-10T15:14:31.733Z,17.10
2024-02-10T15:19:35.109Z,20.40
2024-02-10T15:24:37.025Z,18.38
2024-02-10T15:29:38.912Z,18.10
2024-02-10T15:34:48.502Z,17.45
2024-02-10T15:39:56.582Z,12.85
2024-02-10T15:45:00.511Z,13.95
2024-02-10T15:50:02.516Z,15.60
2024-02-10T15:55:04.911Z,14.65
2024-02-10T16:00:13.362Z,10.48
2024-02-10T16:05:19.719Z,13.35
2024-02-10T16:10:22.347Z,13.88
2024-02-10T16:15:25.544Z,13.38
2024-02-10T16:20:28.397Z,15.07
2024-02-10T16:25:30.636Z,16.10
2024-02-10T16:30:34.512Z,17.35
2024-02-10T16:35:41.388Z,18.73
2024-02-10T16:40:46.444Z,16.90
2024-02-10T16:45:50.275Z,21.20
2024-02-10T16:51:00.729Z,28.25
2024-02-10T16:56:03.256Z,13.27
2024-02-10T17:01:05.847Z,15.90
2024-02-10T17:06:09.330Z,12.88
2024-02-10T17:11:11.687Z,14.65
2024-02-10T17:16:16.158Z,14.20
2024-02-10T17:21:24.744Z,33.78
2024-02-10T17:26:26.983Z,15.88
2024-02-10T17:31:29.876Z,23.20
2024-02-10T17:36:40.367Z,24.88
2024-02-10T17:41:45.714Z,20.23
2024-02-10T17:46:50.739Z,11.82
2024-02-10T17:51:54.194Z,14.85
2024-02-10T17:56:56.434Z,23.90
2024-02-10T18:02:01.859Z,23.30
2024-02-10T18:07:06.018Z,33.17
2024-02-10T18:12:09.926Z,26.38
2024-02-10T18:17:13.879Z,21.15
2024-02-10T18:22:16.661Z,19.70
2024-02-10T18:27:18.708Z,14.18
2024-02-10T18:32:21.341Z,15.60
2024-02-10T18:37:23.870Z,27.38
2024-02-10T18:42:26.145Z,16.77
2024-02-10T18:47:31.802Z,11.75
2024-02-10T18:52:33.960Z,18.63
2024-02-10T18:57:37.648Z,18.30
2024-02-10T19:02:39.968Z,15.10
2024-02-10T19:07:41.853Z,12.77
2024-02-10T19:12:49.469Z,23.42
2024-02-10T19:17:51.515Z,19.40
2024-02-10T19:22:53.898Z,19.13
2024-02-10T19:27:56.517Z,18.10
2024-02-10T19:32:59.969Z,17.17
2024-02-10T19:38:02.631Z,19.42
2024-02-10T19:43:07.380Z,31.15
2024-02-10T19:48:09.735Z,30.70
2024-02-10T19:53:13.428Z,28.83
2024-02-10T19:58:19.032Z,24.70
2024-02-10T20:03:21.820Z,24.45
2024-02-10T20:08:24.499Z,40.80
2024-02-10T20:13:30.369Z,35.10
2024-02-10T20:18:37.766Z,31.85
2024-02-10T20:23:43.321Z,48.15
2024-02-10T20:28:45.299Z,45.83
2024-02-10T20:33:54.153Z,40.78
2024-02-10T20:39:02.216Z,42.35
2024-02-10T20:44:08.205Z,98.18
2024-02-10T20:49:12.317Z,48.30
2024-02-10T20:54:14.941Z,61.13
2024-02-10T20:59:19.893Z,42.83
2024-02-10T21:04:23.811Z,40.75
2024-02-10T21:09:27.235Z,53.38
2024-02-10T21:14:28.957Z,36.03
2024-02-10T21:19:31.715Z,21.67
2024-02-10T21:24:34.053Z,46.78
2024-02-10T21:29:36.087Z,89.32
2024-02-10T21:34:38.416Z,135.15
2024-02-10T21:39:40.655Z,85.35
2024-02-10T21:44:55.075Z,35.22
2024-02-10T21:49:57.563Z,76.15
2024-02-10T21:55:01.277Z,27.85
2024-02-10T22:00:26.999Z,39.55
2024-02-10T22:05:29.352Z,43.17
2024-02-10T22:10:32.383Z,33.08
2024-02-10T22:15:34.501Z,52.25
2024-02-10T22:20:36.390Z,36.38
2024-02-10T22:25:41.739Z,26.65
2024-02-10T22:30:43.629Z,22.35
2024-02-10T22:35:45.518Z,35.97
2024-02-10T22:40:50.746Z,28.00
2024-02-10T22:45:53.116Z,18.58
2024-02-10T22:50:54.890Z,15.80
2024-02-10T22:55:56.972Z,17.80
2024-02-10T23:01:01.794Z,26.88
2024-02-10T23:06:04.717Z,30.95
2024-02-10T23:11:06.891Z,29.23
2024-02-10T23:16:12.133Z,27.08
2024-02-10T23:21:19.337Z,21.02
2024-02-10T23:26:21.242Z,22.67
2024-02-10T23:31:27.605Z,16.42
2024-02-10T23:36:30.064Z,18.92
2024-02-10T23:41:31.887Z,16.95
2024-02-10T23:46:33.819Z,20.13
2024-02-10T23:51:38.288Z,15.45
2024-02-10T23:56:40.532Z,19.95
